Paisley, Oregon
Current Conditions -  °F | °C
As of 11:55 AM on Monday 24 Nov 2014 (Local Time) from KLKV Reporting Station
Clear Clear  
Wind Chill: 37°   Ceiling: Unl
Heat Index: 37°   Visibility: 10mi
Dew Point: 27°   Wind: 3mph
Humidity: 65%   Direction: 120°ESE
Pressure: 30.45"   Gusts: NA
Location:  42.69°N, 120.55°W
Report Text: KLKV 241955Z 12003KT 10SM CLR 03/M03 A3045 RMK AO1
Loading
Personal Weather Stations






























Interactive Weather Map New forecast layout! Learn more

10-Day Weather Forecast

Advertisements
Track Severe Weather on mobile